sensor_id;sensor_type;location;lat;lon;timestamp;temperature;humidity
72756;SHT30;60881;55.002;73.232;2022-09-16T00:01:00;7.26;77.09
72756;SHT30;60881;55.002;73.232;2022-09-16T00:03:31;7.19;77.06
72756;SHT30;60881;55.002;73.232;2022-09-16T00:06:05;7.16;77.09
72756;SHT30;60881;55.002;73.232;2022-09-16T00:08:31;7.24;77.10
72756;SHT30;60881;55.002;73.232;2022-09-16T00:11:07;7.30;76.64
72756;SHT30;60881;55.002;73.232;2022-09-16T00:13:34;7.26;76.91
72756;SHT30;60881;55.002;73.232;2022-09-16T00:16:08;7.30;76.66
72756;SHT30;60881;55.002;73.232;2022-09-16T00:18:35;7.19;77.05
72756;SHT30;60881;55.002;73.232;2022-09-16T00:21:07;7.23;77.36
72756;SHT30;60881;55.002;73.232;2022-09-16T00:23:35;7.27;77.36
72756;SHT30;60881;55.002;73.232;2022-09-16T00:26:02;7.26;77.43
72756;SHT30;60881;55.002;73.232;2022-09-16T00:28:29;7.23;77.58
72756;SHT30;60881;55.002;73.232;2022-09-16T00:31:02;7.24;77.31
72756;SHT30;60881;55.002;73.232;2022-09-16T00:33:30;7.22;77.25
72756;SHT30;60881;55.002;73.232;2022-09-16T00:36:05;7.18;77.59
72756;SHT30;60881;55.002;73.232;2022-09-16T00:38:32;7.19;77.85
72756;SHT30;60881;55.002;73.232;2022-09-16T00:40:59;7.16;78.01
72756;SHT30;60881;55.002;73.232;2022-09-16T00:44:04;7.20;78.70
72756;SHT30;60881;55.002;73.232;2022-09-16T00:46:43;7.27;79.88
72756;SHT30;60881;55.002;73.232;2022-09-16T00:49:24;7.27;79.91
72756;SHT30;60881;55.002;73.232;2022-09-16T00:51:56;7.34;79.74
72756;SHT30;60881;55.002;73.232;2022-09-16T00:54:25;7.39;79.05
72756;SHT30;60881;55.002;73.232;2022-09-16T00:56:54;7.42;79.06
72756;SHT30;60881;55.002;73.232;2022-09-16T00:59:35;7.45;78.87
72756;SHT30;60881;55.002;73.232;2022-09-16T01:02:06;7.52;78.95
72756;SHT30;60881;55.002;73.232;2022-09-16T01:04:38;7.57;78.70
72756;SHT30;60881;55.002;73.232;2022-09-16T01:07:09;7.62;78.56
72756;SHT30;60881;55.002;73.232;2022-09-16T01:09:37;7.65;78.53
72756;SHT30;60881;55.002;73.232;2022-09-16T01:12:04;7.70;78.41
72756;SHT30;60881;55.002;73.232;2022-09-16T01:14:31;7.71;78.43
72756;SHT30;60881;55.002;73.232;2022-09-16T01:29:25;7.91;77.21
72756;SHT30;60881;55.002;73.232;2022-09-16T01:32:14;7.98;77.18
72756;SHT30;60881;55.002;73.232;2022-09-16T01:44:16;8.33;76.15
72756;SHT30;60881;55.002;73.232;2022-09-16T01:50:05;8.51;76.31
72756;SHT30;60881;55.002;73.232;2022-09-16T01:55:50;8.47;75.88
72756;SHT30;60881;55.002;73.232;2022-09-16T01:58:32;8.47;75.65
72756;SHT30;60881;55.002;73.232;2022-09-16T02:01:06;8.55;75.55
72756;SHT30;60881;55.002;73.232;2022-09-16T02:03:38;8.64;74.83
72756;SHT30;60881;55.002;73.232;2022-09-16T02:06:08;8.67;74.97
72756;SHT30;60881;55.002;73.232;2022-09-16T02:08:57;8.68;75.14
72756;SHT30;60881;55.002;73.232;2022-09-16T02:11:25;8.71;75.06
72756;SHT30;60881;55.002;73.232;2022-09-16T02:14:00;8.73;74.41
72756;SHT30;60881;55.002;73.232;2022-09-16T02:16:36;8.79;74.48
72756;SHT30;60881;55.002;73.232;2022-09-16T02:19:11;8.79;74.72
72756;SHT30;60881;55.002;73.232;2022-09-16T02:21:51;8.88;74.22
72756;SHT30;60881;55.002;73.232;2022-09-16T02:24:23;8.96;74.03
72756;SHT30;60881;55.002;73.232;2022-09-16T02:26:54;9.02;74.06
72756;SHT30;60881;55.002;73.232;2022-09-16T02:29:36;9.09;74.12
72756;SHT30;60881;55.002;73.232;2022-09-16T02:32:07;9.16;73.78
72756;SHT30;60881;55.002;73.232;2022-09-16T02:34:38;9.25;73.45
72756;SHT30;60881;55.002;73.232;2022-09-16T02:37:22;9.35;73.09
72756;SHT30;60881;55.002;73.232;2022-09-16T02:39:53;9.42;74.66
72756;SHT30;60881;55.002;73.232;2022-09-16T02:42:28;9.50;76.62
72756;SHT30;60881;55.002;73.232;2022-09-16T02:44:57;9.54;76.52
72756;SHT30;60881;55.002;73.232;2022-09-16T02:47:32;9.61;76.39
72756;SHT30;60881;55.002;73.232;2022-09-16T02:51:03;9.70;76.11
72756;SHT30;60881;55.002;73.232;2022-09-16T02:53:24;9.79;76.08
72756;SHT30;60881;55.002;73.232;2022-09-16T02:56:01;9.87;76.12
72756;SHT30;60881;55.002;73.232;2022-09-16T02:58:32;9.91;75.87
72756;SHT30;60881;55.002;73.232;2022-09-16T03:00:59;10.01;75.83
72756;SHT30;60881;55.002;73.232;2022-09-16T03:03:26;10.08;76.17
72756;SHT30;60881;55.002;73.232;2022-09-16T03:08:32;10.25;76.87
72756;SHT30;60881;55.002;73.232;2022-09-16T03:14:03;10.47;75.85
72756;SHT30;60881;55.002;73.232;2022-09-16T03:17:01;10.57;75.88
72756;SHT30;60881;55.002;73.232;2022-09-16T03:19:51;10.67;76.15
72756;SHT30;60881;55.002;73.232;2022-09-16T03:22:54;10.79;75.30
72756;SHT30;60881;55.002;73.232;2022-09-16T03:28:27;10.96;73.63
72756;SHT30;60881;55.002;73.232;2022-09-16T03:31:16;11.12;71.94
72756;SHT30;60881;55.002;73.232;2022-09-16T03:34:00;11.20;71.61
72756;SHT30;60881;55.002;73.232;2022-09-16T03:36:32;11.28;72.16
72756;SHT30;60881;55.002;73.232;2022-09-16T03:39:08;11.38;72.70
72756;SHT30;60881;55.002;73.232;2022-09-16T03:41:37;11.46;69.91
72756;SHT30;60881;55.002;73.232;2022-09-16T03:44:05;11.55;69.98
72756;SHT30;60881;55.002;73.232;2022-09-16T03:46:31;11.59;70.06
72756;SHT30;60881;55.002;73.232;2022-09-16T03:48:59;11.69;69.84
72756;SHT30;60881;55.002;73.232;2022-09-16T03:51:28;11.80;65.15
72756;SHT30;60881;55.002;73.232;2022-09-16T03:53:56;11.93;64.74
72756;SHT30;60881;55.002;73.232;2022-09-16T03:56:23;12.00;65.05
72756;SHT30;60881;55.002;73.232;2022-09-16T03:58:49;12.08;63.31
72756;SHT30;60881;55.002;73.232;2022-09-16T04:01:21;12.18;63.09
72756;SHT30;60881;55.002;73.232;2022-09-16T04:03:47;12.28;60.81
72756;SHT30;60881;55.002;73.232;2022-09-16T04:06:14;12.42;60.57
72756;SHT30;60881;55.002;73.232;2022-09-16T04:08:50;12.48;61.29
72756;SHT30;60881;55.002;73.232;2022-09-16T04:11:18;12.54;61.75
72756;SHT30;60881;55.002;73.232;2022-09-16T04:13:44;12.58;61.24
72756;SHT30;60881;55.002;73.232;2022-09-16T04:16:20;12.71;59.02
72756;SHT30;60881;55.002;73.232;2022-09-16T04:18:47;12.83;58.72
72756;SHT30;60881;55.002;73.232;2022-09-16T04:21:14;12.92;58.96
72756;SHT30;60881;55.002;73.232;2022-09-16T04:23:41;12.85;59.04
72756;SHT30;60881;55.002;73.232;2022-09-16T04:26:09;12.92;58.88
72756;SHT30;60881;55.002;73.232;2022-09-16T04:28:37;12.96;59.28
72756;SHT30;60881;55.002;73.232;2022-09-16T04:31:08;12.95;59.03
72756;SHT30;60881;55.002;73.232;2022-09-16T04:33:41;13.01;58.01
72756;SHT30;60881;55.002;73.232;2022-09-16T04:36:12;13.14;56.72
72756;SHT30;60881;55.002;73.232;2022-09-16T04:38:41;13.22;56.04
72756;SHT30;60881;55.002;73.232;2022-09-16T04:41:20;13.41;55.38
72756;SHT30;60881;55.002;73.232;2022-09-16T04:43:51;13.49;54.74
72756;SHT30;60881;55.002;73.232;2022-09-16T04:46:24;13.58;55.21
72756;SHT30;60881;55.002;73.232;2022-09-16T04:48:52;13.63;54.51
72756;SHT30;60881;55.002;73.232;2022-09-16T04:51:29;13.67;53.46
72756;SHT30;60881;55.002;73.232;2022-09-16T04:53:58;13.83;52.60
72756;SHT30;60881;55.002;73.232;2022-09-16T04:56:27;13.95;52.22
72756;SHT30;60881;55.002;73.232;2022-09-16T04:58:57;13.99;52.81
72756;SHT30;60881;55.002;73.232;2022-09-16T05:01:29;13.99;53.19
72756;SHT30;60881;55.002;73.232;2022-09-16T05:04:02;14.06;52.57
72756;SHT30;60881;55.002;73.232;2022-09-16T05:06:34;14.07;52.53
72756;SHT30;60881;55.002;73.232;2022-09-16T05:09:01;14.13;51.92
72756;SHT30;60881;55.002;73.232;2022-09-16T05:11:39;14.20;53.45
72756;SHT30;60881;55.002;73.232;2022-09-16T05:14:12;14.29;50.91
72756;SHT30;60881;55.002;73.232;2022-09-16T05:16:39;14.27;51.90
72756;SHT30;60881;55.002;73.232;2022-09-16T05:19:05;14.31;51.10
72756;SHT30;60881;55.002;73.232;2022-09-16T05:21:41;14.51;49.42
72756;SHT30;60881;55.002;73.232;2022-09-16T05:24:10;14.57;49.68
72756;SHT30;60881;55.002;73.232;2022-09-16T05:26:39;14.51;50.33
72756;SHT30;60881;55.002;73.232;2022-09-16T05:29:10;14.50;50.98
72756;SHT30;60881;55.002;73.232;2022-09-16T05:31:39;14.56;48.59
72756;SHT30;60881;55.002;73.232;2022-09-16T05:34:14;14.64;48.48
72756;SHT30;60881;55.002;73.232;2022-09-16T05:36:51;14.77;46.69
72756;SHT30;60881;55.002;73.232;2022-09-16T05:39:18;14.77;46.89
72756;SHT30;60881;55.002;73.232;2022-09-16T05:41:53;14.84;45.03
72756;SHT30;60881;55.002;73.232;2022-09-16T05:44:20;14.88;44.45
72756;SHT30;60881;55.002;73.232;2022-09-16T05:46:47;14.94;44.79
72756;SHT30;60881;55.002;73.232;2022-09-16T05:49:13;15.02;42.31
72756;SHT30;60881;55.002;73.232;2022-09-16T05:51:50;15.14;42.84
72756;SHT30;60881;55.002;73.232;2022-09-16T05:54:17;15.17;42.44
72756;SHT30;60881;55.002;73.232;2022-09-16T05:56:45;15.24;41.50
72756;SHT30;60881;55.002;73.232;2022-09-16T05:59:14;15.24;42.56
72756;SHT30;60881;55.002;73.232;2022-09-16T06:01:43;15.15;43.87
72756;SHT30;60881;55.002;73.232;2022-09-16T06:04:11;15.11;43.41
72756;SHT30;60881;55.002;73.232;2022-09-16T06:06:43;15.05;43.64
72756;SHT30;60881;55.002;73.232;2022-09-16T06:09:12;15.15;43.75
72756;SHT30;60881;55.002;73.232;2022-09-16T06:11:43;15.18;44.10
72756;SHT30;60881;55.002;73.232;2022-09-16T06:14:11;15.24;44.20
72756;SHT30;60881;55.002;73.232;2022-09-16T06:16:38;15.28;44.50
72756;SHT30;60881;55.002;73.232;2022-09-16T06:19:09;15.25;44.08
72756;SHT30;60881;55.002;73.232;2022-09-16T06:21:38;15.15;44.72
72756;SHT30;60881;55.002;73.232;2022-09-16T06:24:05;15.22;43.35
72756;SHT30;60881;55.002;73.232;2022-09-16T06:26:37;15.28;43.74
72756;SHT30;60881;55.002;73.232;2022-09-16T06:29:04;15.41;43.20
72756;SHT30;60881;55.002;73.232;2022-09-16T06:31:31;15.43;42.69
72756;SHT30;60881;55.002;73.232;2022-09-16T06:33:58;15.56;42.23
72756;SHT30;60881;55.002;73.232;2022-09-16T06:36:30;15.65;41.59
72756;SHT30;60881;55.002;73.232;2022-09-16T06:38:56;15.67;41.45
72756;SHT30;60881;55.002;73.232;2022-09-16T06:41:23;15.66;42.04
72756;SHT30;60881;55.002;73.232;2022-09-16T06:43:59;15.67;42.93
72756;SHT30;60881;55.002;73.232;2022-09-16T06:46:27;15.65;42.86
72756;SHT30;60881;55.002;73.232;2022-09-16T06:49:01;15.65;43.02
72756;SHT30;60881;55.002;73.232;2022-09-16T06:51:29;15.65;43.21
72756;SHT30;60881;55.002;73.232;2022-09-16T06:54:02;15.70;43.38
72756;SHT30;60881;55.002;73.232;2022-09-16T06:56:29;15.83;42.83
72756;SHT30;60881;55.002;73.232;2022-09-16T06:58:56;15.92;42.62
72756;SHT30;60881;55.002;73.232;2022-09-16T07:01:27;15.90;43.09
72756;SHT30;60881;55.002;73.232;2022-09-16T07:03:55;15.85;42.44
72756;SHT30;60881;55.002;73.232;2022-09-16T07:06:26;15.83;42.09
72756;SHT30;60881;55.002;73.232;2022-09-16T07:08:54;15.73;42.68
72756;SHT30;60881;55.002;73.232;2022-09-16T07:11:28;15.89;41.52
72756;SHT30;60881;55.002;73.232;2022-09-16T07:13:57;15.96;41.22
72756;SHT30;60881;55.002;73.232;2022-09-16T07:16:25;16.03;40.95
72756;SHT30;60881;55.002;73.232;2022-09-16T07:18:57;16.05;41.03
72756;SHT30;60881;55.002;73.232;2022-09-16T07:21:27;15.96;42.44
72756;SHT30;60881;55.002;73.232;2022-09-16T07:24:02;15.93;42.41
72756;SHT30;60881;55.002;73.232;2022-09-16T07:26:30;15.96;42.61
72756;SHT30;60881;55.002;73.232;2022-09-16T07:28:59;15.93;42.06
72756;SHT30;60881;55.002;73.232;2022-09-16T07:31:34;15.95;42.77
72756;SHT30;60881;55.002;73.232;2022-09-16T07:34:02;15.95;42.14
72756;SHT30;60881;55.002;73.232;2022-09-16T07:36:33;16.02;41.58
72756;SHT30;60881;55.002;73.232;2022-09-16T07:39:00;16.05;41.73
72756;SHT30;60881;55.002;73.232;2022-09-16T07:41:29;16.03;41.67
72756;SHT30;60881;55.002;73.232;2022-09-16T07:43:58;16.02;42.90
72756;SHT30;60881;55.002;73.232;2022-09-16T07:46:28;16.16;41.79
72756;SHT30;60881;55.002;73.232;2022-09-16T07:48:56;16.20;41.94
72756;SHT30;60881;55.002;73.232;2022-09-16T07:51:25;16.23;41.41
72756;SHT30;60881;55.002;73.232;2022-09-16T07:53:58;16.29;40.25
72756;SHT30;60881;55.002;73.232;2022-09-16T07:56:27;16.36;40.55
72756;SHT30;60881;55.002;73.232;2022-09-16T07:58:58;16.30;40.84
72756;SHT30;60881;55.002;73.232;2022-09-16T08:01:31;16.23;41.17
72756;SHT30;60881;55.002;73.232;2022-09-16T08:03:59;16.14;41.29
72756;SHT30;60881;55.002;73.232;2022-09-16T08:06:28;16.10;42.12
72756;SHT30;60881;55.002;73.232;2022-09-16T08:09:00;16.19;41.78
72756;SHT30;60881;55.002;73.232;2022-09-16T08:11:29;16.19;41.86
72756;SHT30;60881;55.002;73.232;2022-09-16T08:13:59;16.20;42.61
72756;SHT30;60881;55.002;73.232;2022-09-16T08:16:25;16.32;41.29
72756;SHT30;60881;55.002;73.232;2022-09-16T08:18:54;16.46;40.81
72756;SHT30;60881;55.002;73.232;2022-09-16T08:21:23;16.54;40.39
72756;SHT30;60881;55.002;73.232;2022-09-16T08:23:51;16.49;40.42
72756;SHT30;60881;55.002;73.232;2022-09-16T08:26:18;16.49;40.95
72756;SHT30;60881;55.002;73.232;2022-09-16T08:28:45;16.39;40.62
72756;SHT30;60881;55.002;73.232;2022-09-16T08:31:12;16.39;41.14
72756;SHT30;60881;55.002;73.232;2022-09-16T08:33:40;16.33;41.82
72756;SHT30;60881;55.002;73.232;2022-09-16T08:36:19;16.36;41.55
72756;SHT30;60881;55.002;73.232;2022-09-16T08:38:47;16.43;41.00
72756;SHT30;60881;55.002;73.232;2022-09-16T08:49:54;16.63;40.22
72756;SHT30;60881;55.002;73.232;2022-09-16T08:52:30;16.70;39.91
72756;SHT30;60881;55.002;73.232;2022-09-16T08:55:15;16.73;39.60
72756;SHT30;60881;55.002;73.232;2022-09-16T08:57:55;16.84;39.48
72756;SHT30;60881;55.002;73.232;2022-09-16T09:00:23;16.85;39.56
72756;SHT30;60881;55.002;73.232;2022-09-16T09:05:53;16.94;38.88
72756;SHT30;60881;55.002;73.232;2022-09-16T09:08:42;16.97;39.27
72756;SHT30;60881;55.002;73.232;2022-09-16T09:14:09;17.04;38.38
72756;SHT30;60881;55.002;73.232;2022-09-16T09:16:48;17.07;38.63
72756;SHT30;60881;55.002;73.232;2022-09-16T09:19:30;17.08;38.38
72756;SHT30;60881;55.002;73.232;2022-09-16T09:27:40;17.03;37.97
72756;SHT30;60881;55.002;73.232;2022-09-16T09:41:25;17.20;38.51
72756;SHT30;60881;55.002;73.232;2022-09-16T09:46:34;17.17;38.39
72756;SHT30;60881;55.002;73.232;2022-09-16T09:49:44;17.15;38.71
72756;SHT30;60881;55.002;73.232;2022-09-16T09:54:43;17.12;38.06
72756;SHT30;60881;55.002;73.232;2022-09-16T09:57:29;17.14;38.23
72756;SHT30;60881;55.002;73.232;2022-09-16T10:00:02;17.22;38.78
72756;SHT30;60881;55.002;73.232;2022-09-16T10:02:39;17.30;38.89
72756;SHT30;60881;55.002;73.232;2022-09-16T10:05:24;17.21;38.87
72756;SHT30;60881;55.002;73.232;2022-09-16T10:07:57;17.21;38.82
72756;SHT30;60881;55.002;73.232;2022-09-16T10:10:52;17.20;39.30
72756;SHT30;60881;55.002;73.232;2022-09-16T10:13:30;17.27;38.47
72756;SHT30;60881;55.002;73.232;2022-09-16T10:16:10;17.24;38.84
72756;SHT30;60881;55.002;73.232;2022-09-16T10:19:14;17.28;37.93
72756;SHT30;60881;55.002;73.232;2022-09-16T10:21:47;17.22;38.35
72756;SHT30;60881;55.002;73.232;2022-09-16T10:24:31;17.18;38.45
72756;SHT30;60881;55.002;73.232;2022-09-16T10:26:59;17.15;38.32
72756;SHT30;60881;55.002;73.232;2022-09-16T10:29:36;17.17;38.06
72756;SHT30;60881;55.002;73.232;2022-09-16T10:32:05;17.15;38.19
72756;SHT30;60881;55.002;73.232;2022-09-16T10:34:37;17.12;38.41
72756;SHT30;60881;55.002;73.232;2022-09-16T10:37:24;17.08;38.73
72756;SHT30;60881;55.002;73.232;2022-09-16T10:39:55;17.03;38.17
72756;SHT30;60881;55.002;73.232;2022-09-16T10:42:26;16.98;39.13
72756;SHT30;60881;55.002;73.232;2022-09-16T10:45:27;16.94;39.46
72756;SHT30;60881;55.002;73.232;2022-09-16T10:48:05;16.92;38.97
72756;SHT30;60881;55.002;73.232;2022-09-16T10:50:33;16.91;39.20
72756;SHT30;60881;55.002;73.232;2022-09-16T10:53:20;16.88;39.18
72756;SHT30;60881;55.002;73.232;2022-09-16T10:55:56;16.98;39.99
72756;SHT30;60881;55.002;73.232;2022-09-16T10:58:23;16.98;39.45
72756;SHT30;60881;55.002;73.232;2022-09-16T11:01:45;16.98;38.86
72756;SHT30;60881;55.002;73.232;2022-09-16T11:04:07;16.91;37.65
72756;SHT30;60881;55.002;73.232;2022-09-16T11:09:34;16.94;38.89
72756;SHT30;60881;55.002;73.232;2022-09-16T11:29:30;17.03;39.58
72756;SHT30;60881;55.002;73.232;2022-09-16T11:46:31;16.84;39.24
72756;SHT30;60881;55.002;73.232;2022-09-16T11:49:23;16.78;38.47
72756;SHT30;60881;55.002;73.232;2022-09-16T11:57:34;16.73;38.48
72756;SHT30;60881;55.002;73.232;2022-09-16T12:00:12;16.70;38.49
72756;SHT30;60881;55.002;73.232;2022-09-16T12:03:04;16.68;38.81
72756;SHT30;60881;55.002;73.232;2022-09-16T12:05:50;16.68;38.94
72756;SHT30;60881;55.002;73.232;2022-09-16T12:08:54;16.63;38.95
72756;SHT30;60881;55.002;73.232;2022-09-16T12:12:39;16.60;39.37
72756;SHT30;60881;55.002;73.232;2022-09-16T12:14:51;16.57;39.02
72756;SHT30;60881;55.002;73.232;2022-09-16T12:17:21;16.56;38.42
72756;SHT30;60881;55.002;73.232;2022-09-16T12:20:03;16.56;39.07
72756;SHT30;60881;55.002;73.232;2022-09-16T12:22:41;16.47;40.07
72756;SHT30;60881;55.002;73.232;2022-09-16T12:25:19;16.36;41.04
72756;SHT30;60881;55.002;73.232;2022-09-16T12:27:51;16.26;40.48
72756;SHT30;60881;55.002;73.232;2022-09-16T12:30:27;16.22;41.19
72756;SHT30;60881;55.002;73.232;2022-09-16T12:33:05;16.20;42.19
72756;SHT30;60881;55.002;73.232;2022-09-16T12:35:50;16.16;42.36
72756;SHT30;60881;55.002;73.232;2022-09-16T12:38:23;16.16;39.84
72756;SHT30;60881;55.002;73.232;2022-09-16T12:46:11;16.03;41.22
72756;SHT30;60881;55.002;73.232;2022-09-16T13:03:02;15.78;41.11
72756;SHT30;60881;55.002;73.232;2022-09-16T13:05:38;15.82;40.97
72756;SHT30;60881;55.002;73.232;2022-09-16T13:08:28;15.76;41.12
72756;SHT30;60881;55.002;73.232;2022-09-16T13:11:01;15.73;41.28
72756;SHT30;60881;55.002;73.232;2022-09-16T13:13:46;15.72;40.89
72756;SHT30;60881;55.002;73.232;2022-09-16T13:16:38;15.72;40.61
72756;SHT30;60881;55.002;73.232;2022-09-16T13:27:29;15.59;41.09
72756;SHT30;60881;55.002;73.232;2022-09-16T13:32:40;15.53;41.72
72756;SHT30;60881;55.002;73.232;2022-09-16T13:37:51;15.38;44.85
72756;SHT30;60881;55.002;73.232;2022-09-16T13:40:23;15.19;46.27
72756;SHT30;60881;55.002;73.232;2022-09-16T13:43:02;15.04;44.85
72756;SHT30;60881;55.002;73.232;2022-09-16T13:45:37;14.99;44.54
72756;SHT30;60881;55.002;73.232;2022-09-16T13:48:27;14.92;46.68
72756;SHT30;60881;55.002;73.232;2022-09-16T13:50:59;14.84;45.59
72756;SHT30;60881;55.002;73.232;2022-09-16T13:53:30;14.83;46.24
72756;SHT30;60881;55.002;73.232;2022-09-16T13:59:00;14.74;46.94
72756;SHT30;60881;55.002;73.232;2022-09-16T14:02:07;14.60;48.82
72756;SHT30;60881;55.002;73.232;2022-09-16T14:04:39;14.37;51.61
72756;SHT30;60881;55.002;73.232;2022-09-16T14:10:10;14.12;50.92
72756;SHT30;60881;55.002;73.232;2022-09-16T14:15:55;13.93;49.30
72756;SHT30;60881;55.002;73.232;2022-09-16T14:18:33;13.93;47.97
72756;SHT30;60881;55.002;73.232;2022-09-16T14:21:05;13.90;52.42
72756;SHT30;60881;55.002;73.232;2022-09-16T14:23:46;13.76;52.71
72756;SHT30;60881;55.002;73.232;2022-09-16T14:26:21;13.62;53.23
72756;SHT30;60881;55.002;73.232;2022-09-16T14:29:01;13.49;54.48
72756;SHT30;60881;55.002;73.232;2022-09-16T14:31:36;13.41;53.82
72756;SHT30;60881;55.002;73.232;2022-09-16T14:34:04;13.39;53.86
72756;SHT30;60881;55.002;73.232;2022-09-16T14:36:45;13.38;53.59
72756;SHT30;60881;55.002;73.232;2022-09-16T14:39:14;13.36;54.61
72756;SHT30;60881;55.002;73.232;2022-09-16T14:41:46;13.31;55.54
72756;SHT30;60881;55.002;73.232;2022-09-16T14:46:58;13.23;55.51
72756;SHT30;60881;55.002;73.232;2022-09-16T14:49:27;13.23;55.12
72756;SHT30;60881;55.002;73.232;2022-09-16T14:52:00;13.23;55.61
72756;SHT30;60881;55.002;73.232;2022-09-16T14:54:30;13.16;54.55
72756;SHT30;60881;55.002;73.232;2022-09-16T14:57:02;13.18;55.22
72756;SHT30;60881;55.002;73.232;2022-09-16T14:59:35;13.14;54.06
72756;SHT30;60881;55.002;73.232;2022-09-16T15:02:12;13.09;56.18
72756;SHT30;60881;55.002;73.232;2022-09-16T15:04:52;12.98;56.49
72756;SHT30;60881;55.002;73.232;2022-09-16T15:07:33;12.84;57.06
72756;SHT30;60881;55.002;73.232;2022-09-16T15:10:21;12.69;56.92
72756;SHT30;60881;55.002;73.232;2022-09-16T15:12:51;12.64;56.51
72756;SHT30;60881;55.002;73.232;2022-09-16T15:15:23;12.64;55.98
72756;SHT30;60881;55.002;73.232;2022-09-16T15:18:01;12.62;56.57
72756;SHT30;60881;55.002;73.232;2022-09-16T15:20:38;12.64;56.24
72756;SHT30;60881;55.002;73.232;2022-09-16T15:23:23;12.55;56.75
72756;SHT30;60881;55.002;73.232;2022-09-16T15:25:54;12.57;56.50
72756;SHT30;60881;55.002;73.232;2022-09-16T15:28:21;12.55;57.22
72756;SHT30;60881;55.002;73.232;2022-09-16T15:30:54;12.55;56.52
72756;SHT30;60881;55.002;73.232;2022-09-16T15:33:35;12.51;57.45
72756;SHT30;60881;55.002;73.232;2022-09-16T15:36:11;12.47;57.54
72756;SHT30;60881;55.002;73.232;2022-09-16T15:39:02;12.40;57.41
72756;SHT30;60881;55.002;73.232;2022-09-16T15:41:28;12.36;57.30
72756;SHT30;60881;55.002;73.232;2022-09-16T15:43:57;12.34;57.66
72756;SHT30;60881;55.002;73.232;2022-09-16T15:46:30;12.21;58.20
72756;SHT30;60881;55.002;73.232;2022-09-16T15:48:58;12.21;58.21
72756;SHT30;60881;55.002;73.232;2022-09-16T15:51:33;12.16;58.25
72756;SHT30;60881;55.002;73.232;2022-09-16T15:57:37;12.00;58.92
72756;SHT30;60881;55.002;73.232;2022-09-16T16:00:11;11.93;60.01
72756;SHT30;60881;55.002;73.232;2022-09-16T16:03:00;11.87;60.23
72756;SHT30;60881;55.002;73.232;2022-09-16T16:05:52;11.73;60.69
72756;SHT30;60881;55.002;73.232;2022-09-16T16:08:42;11.67;60.84
72756;SHT30;60881;55.002;73.232;2022-09-16T16:11:20;11.59;61.28
72756;SHT30;60881;55.002;73.232;2022-09-16T16:13:47;11.56;61.30
72756;SHT30;60881;55.002;73.232;2022-09-16T16:16:25;11.58;62.35
72756;SHT30;60881;55.002;73.232;2022-09-16T16:18:55;11.62;60.39
72756;SHT30;60881;55.002;73.232;2022-09-16T16:21:29;11.63;57.46
72756;SHT30;60881;55.002;73.232;2022-09-16T16:23:58;11.70;58.63
72756;SHT30;60881;55.002;73.232;2022-09-16T16:26:32;11.66;59.35
72756;SHT30;60881;55.002;73.232;2022-09-16T16:29:08;11.65;59.45
72756;SHT30;60881;55.002;73.232;2022-09-16T16:31:35;11.65;59.50
72756;SHT30;60881;55.002;73.232;2022-09-16T16:34:02;11.62;59.56
72756;SHT30;60881;55.002;73.232;2022-09-16T16:36:29;11.55;61.15
72756;SHT30;60881;55.002;73.232;2022-09-16T16:39:06;11.40;61.13
72756;SHT30;60881;55.002;73.232;2022-09-16T16:41:32;11.32;61.04
72756;SHT30;60881;55.002;73.232;2022-09-16T16:44:03;11.26;61.62
72756;SHT30;60881;55.002;73.232;2022-09-16T16:46:30;11.26;62.59
72756;SHT30;60881;55.002;73.232;2022-09-16T16:48:56;11.26;60.59
72756;SHT30;60881;55.002;73.232;2022-09-16T16:51:34;11.35;55.96
72756;SHT30;60881;55.002;73.232;2022-09-16T16:54:00;11.47;55.24
72756;SHT30;60881;55.002;73.232;2022-09-16T16:56:27;11.58;54.53
72756;SHT30;60881;55.002;73.232;2022-09-16T16:58:53;11.67;54.03
72756;SHT30;60881;55.002;73.232;2022-09-16T17:01:25;11.69;55.33
72756;SHT30;60881;55.002;73.232;2022-09-16T17:03:57;11.69;54.08
72756;SHT30;60881;55.002;73.232;2022-09-16T17:06:26;11.65;55.57
72756;SHT30;60881;55.002;73.232;2022-09-16T17:08:57;11.62;57.28
72756;SHT30;60881;55.002;73.232;2022-09-16T17:11:25;11.49;55.67
72756;SHT30;60881;55.002;73.232;2022-09-16T17:13:57;11.42;57.49
72756;SHT30;60881;55.002;73.232;2022-09-16T17:16:29;11.36;57.49
72756;SHT30;60881;55.002;73.232;2022-09-16T17:19:01;11.26;57.97
72756;SHT30;60881;55.002;73.232;2022-09-16T17:21:30;11.18;59.48
72756;SHT30;60881;55.002;73.232;2022-09-16T17:24:06;11.14;57.95
72756;SHT30;60881;55.002;73.232;2022-09-16T17:26:34;11.09;58.36
72756;SHT30;60881;55.002;73.232;2022-09-16T17:29:01;11.08;59.03
72756;SHT30;60881;55.002;73.232;2022-09-16T17:31:38;11.02;58.25
72756;SHT30;60881;55.002;73.232;2022-09-16T17:34:13;10.99;59.22
72756;SHT30;60881;55.002;73.232;2022-09-16T17:36:43;10.95;56.34
72756;SHT30;60881;55.002;73.232;2022-09-16T17:39:18;10.94;59.19
72756;SHT30;60881;55.002;73.232;2022-09-16T17:41:48;10.88;58.21
72756;SHT30;60881;55.002;73.232;2022-09-16T17:44:15;10.86;60.55
72756;SHT30;60881;55.002;73.232;2022-09-16T17:46:43;10.85;61.16
72756;SHT30;60881;55.002;73.232;2022-09-16T17:49:17;10.85;61.03
72756;SHT30;60881;55.002;73.232;2022-09-16T17:51:45;10.84;59.27
72756;SHT30;60881;55.002;73.232;2022-09-16T17:54:12;10.82;58.98
72756;SHT30;60881;55.002;73.232;2022-09-16T17:56:41;10.85;58.53
72756;SHT30;60881;55.002;73.232;2022-09-16T17:59:08;10.84;57.46
72756;SHT30;60881;55.002;73.232;2022-09-16T18:01:35;10.75;57.26
72756;SHT30;60881;55.002;73.232;2022-09-16T18:04:02;10.73;58.23
72756;SHT30;60881;55.002;73.232;2022-09-16T18:06:33;10.73;58.95
72756;SHT30;60881;55.002;73.232;2022-09-16T18:09:03;10.65;58.73
72756;SHT30;60881;55.002;73.232;2022-09-16T18:11:30;10.61;58.27
72756;SHT30;60881;55.002;73.232;2022-09-16T18:14:10;10.58;58.18
72756;SHT30;60881;55.002;73.232;2022-09-16T18:16:46;10.58;58.90
72756;SHT30;60881;55.002;73.232;2022-09-16T18:19:13;10.57;58.01
72756;SHT30;60881;55.002;73.232;2022-09-16T18:21:49;10.55;59.25
72756;SHT30;60881;55.002;73.232;2022-09-16T18:24:17;10.52;58.53
72756;SHT30;60881;55.002;73.232;2022-09-16T18:26:45;10.55;58.43
72756;SHT30;60881;55.002;73.232;2022-09-16T18:29:12;10.55;57.46
72756;SHT30;60881;55.002;73.232;2022-09-16T18:31:42;10.60;58.47
72756;SHT30;60881;55.002;73.232;2022-09-16T18:34:11;10.61;57.25
72756;SHT30;60881;55.002;73.232;2022-09-16T18:36:43;10.61;59.24
72756;SHT30;60881;55.002;73.232;2022-09-16T18:39:13;10.54;57.52